sensor_id;sensor_type;location;lat;lon;timestamp;pressure;altitude;pressure_sealevel;temperature;humidity
50125;BME280;36023;48.670;6.184;2022-08-19T00:00:26;98711.19;;;24.93;48.20
50125;BME280;36023;48.670;6.184;2022-08-19T00:02:52;98715.66;;;24.93;48.19
50125;BME280;36023;48.670;6.184;2022-08-19T00:05:18;98712.28;;;24.91;48.27
50125;BME280;36023;48.670;6.184;2022-08-19T00:07:44;98711.47;;;24.90;48.40
50125;BME280;36023;48.670;6.184;2022-08-19T00:10:11;98706.88;;;24.92;48.01
50125;BME280;36023;48.670;6.184;2022-08-19T00:12:37;98711.19;;;24.93;48.25
50125;BME280;36023;48.670;6.184;2022-08-19T00:15:04;98702.41;;;24.93;48.14
50125;BME280;36023;48.670;6.184;2022-08-19T00:17:29;98710.34;;;24.93;47.88
50125;BME280;36023;48.670;6.184;2022-08-19T00:19:55;98711.31;;;24.92;48.02
50125;BME280;36023;48.670;6.184;2022-08-19T00:22:21;98715.06;;;24.89;47.82
50125;BME280;36023;48.670;6.184;2022-08-19T00:24:48;98715.31;;;24.86;47.89
50125;BME280;36023;48.670;6.184;2022-08-19T00:27:15;98723.41;;;24.85;47.58
50125;BME280;36023;48.670;6.184;2022-08-19T00:29:41;98725.34;;;24.83;48.05
50125;BME280;36023;48.670;6.184;2022-08-19T00:32:06;98734.00;;;24.85;47.99
50125;BME280;36023;48.670;6.184;2022-08-19T00:34:35;98728.56;;;24.86;48.19
50125;BME280;36023;48.670;6.184;2022-08-19T00:37:01;98728.44;;;24.88;48.01
50125;BME280;36023;48.670;6.184;2022-08-19T00:39:27;98731.78;;;24.90;47.79
50125;BME280;36023;48.670;6.184;2022-08-19T00:41:52;98727.34;;;24.90;47.94
50125;BME280;36023;48.670;6.184;2022-08-19T00:46:45;98731.53;;;24.93;47.92
50125;BME280;36023;48.670;6.184;2022-08-19T00:52:08;98732.38;;;24.93;47.87
50125;BME280;36023;48.670;6.184;2022-08-19T00:54:35;98726.94;;;24.95;47.47
50125;BME280;36023;48.670;6.184;2022-08-19T00:57:02;98725.97;;;24.96;47.79
50125;BME280;36023;48.670;6.184;2022-08-19T00:59:29;98727.53;;;24.98;47.71
50125;BME280;36023;48.670;6.184;2022-08-19T01:01:55;98721.28;;;24.99;47.61
50125;BME280;36023;48.670;6.184;2022-08-19T01:04:20;98713.31;;;24.99;47.44
50125;BME280;36023;48.670;6.184;2022-08-19T01:06:46;98715.97;;;24.99;47.60
50125;BME280;36023;48.670;6.184;2022-08-19T01:09:12;98716.81;;;25.00;47.51
50125;BME280;36023;48.670;6.184;2022-08-19T01:11:38;98715.84;;;25.01;47.59
50125;BME280;36023;48.670;6.184;2022-08-19T01:14:06;98719.31;;;25.01;47.50
50125;BME280;36023;48.670;6.184;2022-08-19T01:16:32;98721.97;;;25.01;47.32
50125;BME280;36023;48.670;6.184;2022-08-19T01:18:58;98721.97;;;25.01;47.50
50125;BME280;36023;48.670;6.184;2022-08-19T01:23:56;98724.53;;;25.03;47.21
50125;BME280;36023;48.670;6.184;2022-08-19T01:26:22;98727.28;;;25.01;47.09
50125;BME280;36023;48.670;6.184;2022-08-19T01:28:49;98723.66;;;25.02;47.33
50125;BME280;36023;48.670;6.184;2022-08-19T01:31:17;98724.63;;;25.01;47.05
50125;BME280;36023;48.670;6.184;2022-08-19T01:33:44;98716.66;;;25.01;47.08
50125;BME280;36023;48.670;6.184;2022-08-19T01:36:13;98715.84;;;25.01;47.20
50125;BME280;36023;48.670;6.184;2022-08-19T01:38:40;98711.50;;;25.00;46.98
50125;BME280;36023;48.670;6.184;2022-08-19T01:41:07;98715.97;;;24.99;46.90
50125;BME280;36023;48.670;6.184;2022-08-19T01:43:32;98719.31;;;25.01;46.87
50125;BME280;36023;48.670;6.184;2022-08-19T01:45:58;98722.94;;;25.00;46.95
50125;BME280;36023;48.670;6.184;2022-08-19T01:48:23;98726.56;;;24.99;46.71
50125;BME280;36023;48.670;6.184;2022-08-19T01:50:49;98720.53;;;24.97;46.90
50125;BME280;36023;48.670;6.184;2022-08-19T01:53:16;98725.59;;;25.00;46.79
50125;BME280;36023;48.670;6.184;2022-08-19T01:55:42;98722.94;;;25.00;46.81
50125;BME280;36023;48.670;6.184;2022-08-19T01:58:33;98730.75;;;25.02;46.83
50125;BME280;36023;48.670;6.184;2022-08-19T02:01:01;98727.28;;;25.01;46.62
50125;BME280;36023;48.670;6.184;2022-08-19T02:03:27;98728.25;;;25.00;46.62
50125;BME280;36023;48.670;6.184;2022-08-19T02:05:55;98726.44;;;25.01;46.67
50125;BME280;36023;48.670;6.184;2022-08-19T02:08:21;98729.91;;;25.01;46.67
50125;BME280;36023;48.670;6.184;2022-08-19T02:10:47;98729.91;;;25.01;46.77
50125;BME280;36023;48.670;6.184;2022-08-19T02:13:13;98736.91;;;25.02;46.79
50125;BME280;36023;48.670;6.184;2022-08-19T02:15:38;98736.91;;;25.02;46.63
50125;BME280;36023;48.670;6.184;2022-08-19T02:18:04;98741.25;;;25.04;46.23
50125;BME280;36023;48.670;6.184;2022-08-19T02:20:30;98743.06;;;25.03;46.24
50125;BME280;36023;48.670;6.184;2022-08-19T02:22:55;98742.19;;;25.02;46.41
50125;BME280;36023;48.670;6.184;2022-08-19T02:25:21;98744.75;;;25.04;46.30
50125;BME280;36023;48.670;6.184;2022-08-19T02:27:48;98753.53;;;25.05;46.50
50125;BME280;36023;48.670;6.184;2022-08-19T02:30:14;98757.84;;;25.06;46.21
50125;BME280;36023;48.670;6.184;2022-08-19T02:32:42;98754.25;;;25.07;45.97
50125;BME280;36023;48.670;6.184;2022-08-19T02:35:07;98755.19;;;25.06;46.10
50125;BME280;36023;48.670;6.184;2022-08-19T02:37:33;98757.84;;;25.06;46.09
50125;BME280;36023;48.670;6.184;2022-08-19T02:40:18;98762.91;;;25.09;45.75
50125;BME280;36023;48.670;6.184;2022-08-19T02:42:44;98762.22;;;25.07;45.72
50125;BME280;36023;48.670;6.184;2022-08-19T02:45:10;98764.72;;;25.08;45.85
50125;BME280;36023;48.670;6.184;2022-08-19T02:47:35;98761.25;;;25.08;45.59
50125;BME280;36023;48.670;6.184;2022-08-19T02:50:01;98755.19;;;25.06;45.73
50125;BME280;36023;48.670;6.184;2022-08-19T02:52:28;98758.72;;;25.06;45.58
50125;BME280;36023;48.670;6.184;2022-08-19T02:54:53;98759.81;;;25.04;46.01
50125;BME280;36023;48.670;6.184;2022-08-19T02:57:20;98765.34;;;25.00;46.20
50125;BME280;36023;48.670;6.184;2022-08-19T02:59:46;98754.75;;;25.00;46.01
50125;BME280;36023;48.670;6.184;2022-08-19T03:02:11;98758.38;;;24.99;45.89
50125;BME280;36023;48.670;6.184;2022-08-19T03:04:37;98761.13;;;24.98;46.08
50125;BME280;36023;48.670;6.184;2022-08-19T03:07:02;98758.59;;;24.96;46.13
50125;BME280;36023;48.670;6.184;2022-08-19T03:09:28;98765.34;;;25.00;45.52
50125;BME280;36023;48.670;6.184;2022-08-19T03:11:55;98764.38;;;25.01;45.73
50125;BME280;36023;48.670;6.184;2022-08-19T03:14:20;98762.69;;;25.00;45.79
50125;BME280;36023;48.670;6.184;2022-08-19T03:16:47;98766.19;;;25.01;45.87
50125;BME280;36023;48.670;6.184;2022-08-19T03:19:13;98765.34;;;25.00;45.57
50125;BME280;36023;48.670;6.184;2022-08-19T03:21:39;98769.81;;;25.00;45.57
50125;BME280;36023;48.670;6.184;2022-08-19T03:24:06;98764.63;;;24.98;45.56
50125;BME280;36023;48.670;6.184;2022-08-19T03:26:34;98766.56;;;24.96;45.84
50125;BME280;36023;48.670;6.184;2022-08-19T03:29:03;98763.19;;;24.94;45.85
50125;BME280;36023;48.670;6.184;2022-08-19T03:31:31;98775.59;;;24.94;45.81
50125;BME280;36023;48.670;6.184;2022-08-19T03:33:59;98766.81;;;24.93;45.80
50125;BME280;36023;48.670;6.184;2022-08-19T03:36:26;98765.16;;;24.92;45.87
50125;BME280;36023;48.670;6.184;2022-08-19T03:38:53;98757.19;;;24.92;45.84
50125;BME280;36023;48.670;6.184;2022-08-19T03:41:27;98758.03;;;24.93;45.74
50125;BME280;36023;48.670;6.184;2022-08-19T03:43:53;98761.53;;;24.93;45.53
50125;BME280;36023;48.670;6.184;2022-08-19T03:46:20;98769.47;;;24.93;45.98
50125;BME280;36023;48.670;6.184;2022-08-19T03:48:46;98767.66;;;24.94;45.59
50125;BME280;36023;48.670;6.184;2022-08-19T03:51:20;98764.03;;;24.95;45.76
50125;BME280;36023;48.670;6.184;2022-08-19T03:53:46;98766.69;;;24.95;45.51
50125;BME280;36023;48.670;6.184;2022-08-19T03:56:12;98772.97;;;24.94;45.83
50125;BME280;36023;48.670;6.184;2022-08-19T03:58:38;98777.28;;;24.95;45.45
50125;BME280;36023;48.670;6.184;2022-08-19T04:01:08;98773.78;;;24.94;45.37
50125;BME280;36023;48.670;6.184;2022-08-19T04:03:34;98778.13;;;24.95;45.52
50125;BME280;36023;48.670;6.184;2022-08-19T04:06:11;98777.69;;;24.90;45.64
50125;BME280;36023;48.670;6.184;2022-08-19T04:08:38;98780.56;;;24.87;45.70
50125;BME280;36023;48.670;6.184;2022-08-19T04:11:08;98785.03;;;24.87;45.51
50125;BME280;36023;48.670;6.184;2022-08-19T04:13:34;98784.19;;;24.86;45.43
50125;BME280;36023;48.670;6.184;2022-08-19T04:15:59;98789.34;;;24.88;45.58
50125;BME280;36023;48.670;6.184;2022-08-19T04:18:25;98784.06;;;24.88;45.46
50125;BME280;36023;48.670;6.184;2022-08-19T04:20:51;98793.13;;;24.85;45.65
50125;BME280;36023;48.670;6.184;2022-08-19T04:23:16;98795.06;;;24.83;45.43
50125;BME280;36023;48.670;6.184;2022-08-19T04:25:44;98795.91;;;24.84;45.60
50125;BME280;36023;48.670;6.184;2022-08-19T04:28:10;98799.63;;;24.81;45.82
50125;BME280;36023;48.670;6.184;2022-08-19T04:30:47;98790.97;;;24.79;45.91
50125;BME280;36023;48.670;6.184;2022-08-19T04:33:14;98792.50;;;24.82;45.86
50125;BME280;36023;48.670;6.184;2022-08-19T04:35:44;98791.66;;;24.81;45.92
50125;BME280;36023;48.670;6.184;2022-08-19T04:38:10;98782.53;;;24.85;45.89
50125;BME280;36023;48.670;6.184;2022-08-19T04:40:42;98790.34;;;24.87;45.88
50125;BME280;36023;48.670;6.184;2022-08-19T04:43:27;98786.84;;;24.86;45.79
50125;BME280;36023;48.670;6.184;2022-08-19T04:45:52;98788.53;;;24.87;45.72
50125;BME280;36023;48.670;6.184;2022-08-19T04:48:18;98783.22;;;24.87;45.68
50125;BME280;36023;48.670;6.184;2022-08-19T04:50:52;98785.88;;;24.87;45.49
50125;BME280;36023;48.670;6.184;2022-08-19T04:53:29;98780.56;;;24.87;45.76
50125;BME280;36023;48.670;6.184;2022-08-19T04:55:55;98788.38;;;24.89;45.52
50125;BME280;36023;48.670;6.184;2022-08-19T04:58:22;98788.28;;;24.90;45.67
50125;BME280;36023;48.670;6.184;2022-08-19T05:00:48;98796.94;;;24.92;45.43
50125;BME280;36023;48.670;6.184;2022-08-19T05:03:13;98798.75;;;24.92;45.63
50125;BME280;36023;48.670;6.184;2022-08-19T05:05:42;98805.72;;;24.93;45.55
50125;BME280;36023;48.670;6.184;2022-08-19T05:08:08;98803.91;;;24.93;45.54
50125;BME280;36023;48.670;6.184;2022-08-19T05:10:37;98820.66;;;24.94;45.44
50125;BME280;36023;48.670;6.184;2022-08-19T05:13:03;98826.66;;;24.96;45.26
50125;BME280;36023;48.670;6.184;2022-08-19T05:15:29;98828.47;;;24.95;45.27
50125;BME280;36023;48.670;6.184;2022-08-19T05:17:55;98832.78;;;24.96;45.32
50125;BME280;36023;48.670;6.184;2022-08-19T05:20:39;98836.41;;;24.95;45.15
50125;BME280;36023;48.670;6.184;2022-08-19T05:23:23;98835.56;;;24.95;45.21
50125;BME280;36023;48.670;6.184;2022-08-19T05:25:50;98841.72;;;24.95;45.38
50125;BME280;36023;48.670;6.184;2022-08-19T05:28:17;98836.41;;;24.95;45.03
50125;BME280;36023;48.670;6.184;2022-08-19T05:30:43;98831.09;;;24.95;45.40
50125;BME280;36023;48.670;6.184;2022-08-19T05:33:10;98839.06;;;24.95;45.21
50125;BME280;36023;48.670;6.184;2022-08-19T05:35:40;98841.72;;;24.95;45.36
50125;BME280;36023;48.670;6.184;2022-08-19T05:38:06;98849.66;;;24.95;45.27
50125;BME280;36023;48.670;6.184;2022-08-19T05:40:34;98852.31;;;24.95;45.19
50125;BME280;36023;48.670;6.184;2022-08-19T05:43:02;98852.31;;;24.95;45.26
50125;BME280;36023;48.670;6.184;2022-08-19T05:45:27;98848.69;;;24.96;45.30
50125;BME280;36023;48.670;6.184;2022-08-19T05:47:53;98850.34;;;24.97;45.16
50125;BME280;36023;48.670;6.184;2022-08-19T05:50:19;98845.06;;;24.97;45.03
50125;BME280;36023;48.670;6.184;2022-08-19T05:52:45;98846.03;;;24.96;45.15
50125;BME280;36023;48.670;6.184;2022-08-19T05:55:10;98843.38;;;24.96;45.25
50125;BME280;36023;48.670;6.184;2022-08-19T05:57:36;98839.75;;;24.97;45.07
50125;BME280;36023;48.670;6.184;2022-08-19T06:00:03;98849.41;;;24.98;45.21
50125;BME280;36023;48.670;6.184;2022-08-19T06:02:37;98846.78;;;24.98;44.97
50125;BME280;36023;48.670;6.184;2022-08-19T06:05:03;98860.25;;;24.95;45.33
50125;BME280;36023;48.670;6.184;2022-08-19T06:07:28;98862.91;;;24.95;45.19
50125;BME280;36023;48.670;6.184;2022-08-19T06:09:54;98864.72;;;24.95;45.15
50125;BME280;36023;48.670;6.184;2022-08-19T06:12:20;98865.56;;;24.95;45.17
50125;BME280;36023;48.670;6.184;2022-08-19T06:14:55;98865.56;;;24.95;45.11
50125;BME280;36023;48.670;6.184;2022-08-19T06:17:21;98860.03;;;24.98;44.92
50125;BME280;36023;48.670;6.184;2022-08-19T06:19:50;98868.19;;;24.95;45.03
50125;BME280;36023;48.670;6.184;2022-08-19T06:22:15;98862.91;;;24.95;45.20
50125;BME280;36023;48.670;6.184;2022-08-19T06:24:43;98860.38;;;24.94;45.20
50125;BME280;36023;48.670;6.184;2022-08-19T06:27:09;98864.00;;;24.93;45.34
50125;BME280;36023;48.670;6.184;2022-08-19T06:29:35;98872.78;;;24.93;45.12
50125;BME280;36023;48.670;6.184;2022-08-19T06:32:01;98865.69;;;24.94;45.27
50125;BME280;36023;48.670;6.184;2022-08-19T06:34:30;98870.16;;;24.93;45.23
50125;BME280;36023;48.670;6.184;2022-08-19T06:36:56;98877.13;;;24.94;45.21
50125;BME280;36023;48.670;6.184;2022-08-19T06:39:24;98871.94;;;24.93;45.40
50125;BME280;36023;48.670;6.184;2022-08-19T06:41:50;98887.84;;;24.93;45.30
50125;BME280;36023;48.670;6.184;2022-08-19T06:44:17;98889.66;;;24.92;45.36
50125;BME280;36023;48.670;6.184;2022-08-19T06:46:43;98887.84;;;24.93;45.46
50125;BME280;36023;48.670;6.184;2022-08-19T06:49:08;98890.63;;;24.91;45.33
50125;BME280;36023;48.670;6.184;2022-08-19T06:51:38;98890.63;;;24.91;45.25
50125;BME280;36023;48.670;6.184;2022-08-19T06:54:04;98896.03;;;24.90;45.74
50125;BME280;36023;48.670;6.184;2022-08-19T06:56:30;98896.03;;;24.90;45.71
50125;BME280;36023;48.670;6.184;2022-08-19T06:59:03;98903.13;;;24.89;45.92
50125;BME280;36023;48.670;6.184;2022-08-19T07:01:29;98907.59;;;24.89;45.90
50125;BME280;36023;48.670;6.184;2022-08-19T07:03:54;98901.22;;;24.91;45.89
50125;BME280;36023;48.670;6.184;2022-08-19T07:06:21;98912.66;;;24.92;45.83
50125;BME280;36023;48.670;6.184;2022-08-19T07:08:47;98914.34;;;24.93;45.69
50125;BME280;36023;48.670;6.184;2022-08-19T07:11:14;98914.91;;;24.96;45.60
50125;BME280;36023;48.670;6.184;2022-08-19T07:13:40;98913.25;;;24.95;45.67
50125;BME280;36023;48.670;6.184;2022-08-19T07:16:11;98929.00;;;24.97;45.82
50125;BME280;36023;48.670;6.184;2022-08-19T07:18:37;98928.03;;;24.98;45.77
50125;BME280;36023;48.670;6.184;2022-08-19T07:21:07;98928.03;;;24.98;45.71
50125;BME280;36023;48.670;6.184;2022-08-19T07:23:33;98928.91;;;24.98;45.57
50125;BME280;36023;48.670;6.184;2022-08-19T07:26:05;98934.22;;;24.98;45.77
50125;BME280;36023;48.670;6.184;2022-08-19T07:28:31;98927.81;;;25.01;45.82
50125;BME280;36023;48.670;6.184;2022-08-19T07:30:56;98934.91;;;25.00;45.57
50125;BME280;36023;48.670;6.184;2022-08-19T07:33:23;98939.25;;;25.01;45.67
50125;BME280;36023;48.670;6.184;2022-08-19T07:35:49;98937.44;;;25.02;45.69
50125;BME280;36023;48.670;6.184;2022-08-19T07:38:15;98934.69;;;25.04;45.84
50125;BME280;36023;48.670;6.184;2022-08-19T07:40:41;98939.97;;;25.04;45.65
50125;BME280;36023;48.670;6.184;2022-08-19T07:43:06;98938.28;;;25.02;45.93
50125;BME280;36023;48.670;6.184;2022-08-19T07:45:32;98945.28;;;25.04;45.76
50125;BME280;36023;48.670;6.184;2022-08-19T07:47:57;98933.84;;;25.03;45.91
50125;BME280;36023;48.670;6.184;2022-08-19T07:50:23;98944.44;;;25.03;45.73
50125;BME280;36023;48.670;6.184;2022-08-19T07:52:49;98938.28;;;25.02;46.01
50125;BME280;36023;48.670;6.184;2022-08-19T07:55:15;98937.34;;;25.04;46.07
50125;BME280;36023;48.670;6.184;2022-08-19T07:57:41;98943.56;;;25.02;45.82
50125;BME280;36023;48.670;6.184;2022-08-19T08:00:07;98939.97;;;25.04;45.97
50125;BME280;36023;48.670;6.184;2022-08-19T08:02:37;98945.28;;;25.04;45.98
50125;BME280;36023;48.670;6.184;2022-08-19T08:05:04;98950.44;;;25.05;45.96
50125;BME280;36023;48.670;6.184;2022-08-19T08:07:48;98944.22;;;25.06;45.92
50125;BME280;36023;48.670;6.184;2022-08-19T08:10:32;98955.75;;;25.05;45.98
50125;BME280;36023;48.670;6.184;2022-08-19T08:12:58;98949.50;;;25.06;45.92
50125;BME280;36023;48.670;6.184;2022-08-19T08:15:23;98947.69;;;25.07;45.96
50125;BME280;36023;48.670;6.184;2022-08-19T08:17:49;98952.03;;;25.08;46.15
50125;BME280;36023;48.670;6.184;2022-08-19T08:20:14;98946.72;;;25.08;46.30
50125;BME280;36023;48.670;6.184;2022-08-19T08:22:46;98951.06;;;25.09;46.33
50125;BME280;36023;48.670;6.184;2022-08-19T08:25:30;98950.09;;;25.10;46.32
50125;BME280;36023;48.670;6.184;2022-08-19T08:27:56;98941.16;;;25.11;46.27
50125;BME280;36023;48.670;6.184;2022-08-19T08:30:26;98942.84;;;25.12;46.13
50125;BME280;36023;48.670;6.184;2022-08-19T08:32:53;98943.69;;;25.12;46.47
50125;BME280;36023;48.670;6.184;2022-08-19T08:35:21;98939.13;;;25.14;46.51
50125;BME280;36023;48.670;6.184;2022-08-19T08:37:47;98949.59;;;25.16;46.53
50125;BME280;36023;48.670;6.184;2022-08-19T08:40:33;98946.94;;;25.16;46.48
50125;BME280;36023;48.670;6.184;2022-08-19T08:43:06;98944.16;;;25.17;46.63
50125;BME280;36023;48.670;6.184;2022-08-19T08:45:32;98941.38;;;25.19;46.60
50125;BME280;36023;48.670;6.184;2022-08-19T08:48:02;98940.41;;;25.20;46.64
50125;BME280;36023;48.670;6.184;2022-08-19T08:50:33;98948.25;;;25.21;46.64
50125;BME280;36023;48.670;6.184;2022-08-19T08:53:01;98948.25;;;25.21;46.90
50125;BME280;36023;48.670;6.184;2022-08-19T08:55:27;98941.25;;;25.20;46.72
50125;BME280;36023;48.670;6.184;2022-08-19T08:58:04;98939.44;;;25.21;47.02
50125;BME280;36023;48.670;6.184;2022-08-19T09:00:32;98942.09;;;25.21;46.89
50125;BME280;36023;48.670;6.184;2022-08-19T09:02:59;98949.09;;;25.22;46.96
50125;BME280;36023;48.670;6.184;2022-08-19T09:06:00;98952.69;;;25.21;46.73
50125;BME280;36023;48.670;6.184;2022-08-19T09:08:23;98949.94;;;25.22;47.07
50125;BME280;36023;48.670;6.184;2022-08-19T09:10:53;98956.91;;;25.23;47.04
50125;BME280;36023;48.670;6.184;2022-08-19T09:15:58;98952.31;;;25.25;47.19
50125;BME280;36023;48.670;6.184;2022-08-19T09:18:37;98946.19;;;25.25;47.25
50125;BME280;36023;48.670;6.184;2022-08-19T09:21:03;98944.38;;;25.25;47.30
50125;BME280;36023;48.670;6.184;2022-08-19T09:23:29;98948.56;;;25.28;47.20
50125;BME280;36023;48.670;6.184;2022-08-19T09:25:54;98945.06;;;25.27;47.29
50125;BME280;36023;48.670;6.184;2022-08-19T09:28:20;98950.25;;;25.29;47.25
50125;BME280;36023;48.670;6.184;2022-08-19T09:30:45;98947.50;;;25.31;47.47
50125;BME280;36023;48.670;6.184;2022-08-19T09:33:12;98940.38;;;25.31;47.54
50125;BME280;36023;48.670;6.184;2022-08-19T09:35:37;98939.41;;;25.32;47.41
50125;BME280;36023;48.670;6.184;2022-08-19T09:38:03;98934.94;;;25.33;47.52
50125;BME280;36023;48.670;6.184;2022-08-19T09:40:29;98938.28;;;25.35;47.53
50125;BME280;36023;48.670;6.184;2022-08-19T09:42:54;98933.00;;;25.35;47.67
50125;BME280;36023;48.670;6.184;2022-08-19T09:45:22;98932.16;;;25.34;47.65
50125;BME280;36023;48.670;6.184;2022-08-19T09:47:49;98940.09;;;25.34;47.54
50125;BME280;36023;48.670;6.184;2022-08-19T09:50:16;98935.66;;;25.35;47.62
50125;BME280;36023;48.670;6.184;2022-08-19T09:52:42;98941.78;;;25.35;47.52
50125;BME280;36023;48.670;6.184;2022-08-19T09:55:08;98946.94;;;25.37;47.58
50125;BME280;36023;48.670;6.184;2022-08-19T09:57:34;98947.81;;;25.37;47.71
50125;BME280;36023;48.670;6.184;2022-08-19T10:00:00;98951.19;;;25.39;47.57
50125;BME280;36023;48.670;6.184;2022-08-19T10:02:26;98952.03;;;25.40;47.55
50125;BME280;36023;48.670;6.184;2022-08-19T10:04:51;98951.06;;;25.41;47.65
50125;BME280;36023;48.670;6.184;2022-08-19T10:07:36;98943.09;;;25.41;47.87
50125;BME280;36023;48.670;6.184;2022-08-19T10:10:02;98950.06;;;25.42;47.68
50125;BME280;36023;48.670;6.184;2022-08-19T10:12:28;98948.25;;;25.42;47.84
50125;BME280;36023;48.670;6.184;2022-08-19T10:14:54;98947.28;;;25.43;47.86
50125;BME280;36023;48.670;6.184;2022-08-19T10:17:19;98955.16;;;25.45;47.94
50125;BME280;36023;48.670;6.184;2022-08-19T10:19:45;98962.97;;;25.46;48.10
50125;BME280;36023;48.670;6.184;2022-08-19T10:22:10;98952.50;;;25.45;48.05
50125;BME280;36023;48.670;6.184;2022-08-19T10:24:40;98958.50;;;25.47;47.97
50125;BME280;36023;48.670;6.184;2022-08-19T10:27:06;98954.03;;;25.47;48.08
50125;BME280;36023;48.670;6.184;2022-08-19T10:29:32;98951.25;;;25.49;48.11
50125;BME280;36023;48.670;6.184;2022-08-19T10:32:03;98945.81;;;25.50;48.01
50125;BME280;36023;48.670;6.184;2022-08-19T10:34:34;98948.09;;;25.55;48.07
50125;BME280;36023;48.670;6.184;2022-08-19T10:37:02;98951.31;;;25.59;48.16
50125;BME280;36023;48.670;6.184;2022-08-19T10:39:28;98944.94;;;25.61;48.35
50125;BME280;36023;48.670;6.184;2022-08-19T10:41:54;98945.63;;;25.63;48.29
50125;BME280;36023;48.670;6.184;2022-08-19T10:44:21;98948.16;;;25.65;48.30
50125;BME280;36023;48.670;6.184;2022-08-19T10:46:48;98950.53;;;25.68;48.32
50125;BME280;36023;48.670;6.184;2022-08-19T10:49:14;98950.53;;;25.68;48.63
50125;BME280;36023;48.670;6.184;2022-08-19T10:51:39;98950.53;;;25.68;48.48
50125;BME280;36023;48.670;6.184;2022-08-19T10:54:24;98941.75;;;25.67;48.65
50125;BME280;36023;48.670;6.184;2022-08-19T10:57:10;98951.41;;;25.68;48.77
50125;BME280;36023;48.670;6.184;2022-08-19T10:59:35;98939.94;;;25.68;48.78
50125;BME280;36023;48.670;6.184;2022-08-19T11:02:02;98946.09;;;25.68;49.03
50125;BME280;36023;48.670;6.184;2022-08-19T11:04:28;98949.59;;;25.69;48.85
50125;BME280;36023;48.670;6.184;2022-08-19T11:06:55;98940.78;;;25.68;48.95
50125;BME280;36023;48.670;6.184;2022-08-19T11:09:21;98943.31;;;25.70;48.94
50125;BME280;36023;48.670;6.184;2022-08-19T11:11:50;98933.69;;;25.69;49.21
50125;BME280;36023;48.670;6.184;2022-08-19T11:14:16;98942.47;;;25.69;49.20
50125;BME280;36023;48.670;6.184;2022-08-19T11:16:44;98935.50;;;25.68;49.21
50125;BME280;36023;48.670;6.184;2022-08-19T11:19:11;98939.81;;;25.69;49.12
50125;BME280;36023;48.670;6.184;2022-08-19T11:21:38;98937.03;;;25.71;49.34
50125;BME280;36023;48.670;6.184;2022-08-19T11:24:05;98934.38;;;25.71;49.34
50125;BME280;36023;48.670;6.184;2022-08-19T11:26:33;98928.97;;;25.72;49.48
50125;BME280;36023;48.670;6.184;2022-08-19T11:29:01;98939.59;;;25.72;49.17
50125;BME280;36023;48.670;6.184;2022-08-19T11:31:29;98943.06;;;25.73;49.38
50125;BME280;36023;48.670;6.184;2022-08-19T11:34:00;98944.75;;;25.74;49.54
50125;BME280;36023;48.670;6.184;2022-08-19T11:36:28;98945.47;;;25.76;49.67
50125;BME280;36023;48.670;6.184;2022-08-19T11:38:54;98953.31;;;25.77;49.63
50125;BME280;36023;48.670;6.184;2022-08-19T11:41:20;98943.66;;;25.76;49.77
50125;BME280;36023;48.670;6.184;2022-08-19T11:43:48;98949.53;;;25.80;49.79
50125;BME280;36023;48.670;6.184;2022-08-19T11:46:15;98947.72;;;25.80;49.97
50125;BME280;36023;48.670;6.184;2022-08-19T11:48:40;98950.38;;;25.80;50.12
50125;BME280;36023;48.670;6.184;2022-08-19T11:51:08;98953.88;;;25.81;50.12
50125;BME280;36023;48.670;6.184;2022-08-19T11:53:35;98951.22;;;25.81;50.19
50125;BME280;36023;48.670;6.184;2022-08-19T11:56:02;98953.88;;;25.81;50.24
50125;BME280;36023;48.670;6.184;2022-08-19T11:58:28;98944.25;;;25.80;50.25
50125;BME280;36023;48.670;6.184;2022-08-19T12:00:54;98938.94;;;25.80;50.38
50125;BME280;36023;48.670;6.184;2022-08-19T12:03:20;98946.91;;;25.80;50.44
50125;BME280;36023;48.670;6.184;2022-08-19T12:05:46;98947.88;;;25.79;50.54
50125;BME280;36023;48.670;6.184;2022-08-19T12:08:11;98946.06;;;25.79;50.50
50125;BME280;36023;48.670;6.184;2022-08-19T12:10:39;98942.56;;;25.79;50.65
50125;BME280;36023;48.670;6.184;2022-08-19T12:13:04;98948.84;;;25.78;50.62
50125;BME280;36023;48.670;6.184;2022-08-19T12:15:35;98942.56;;;25.79;50.80
50125;BME280;36023;48.670;6.184;2022-08-19T12:18:01;98941.72;;;25.78;50.82
50125;BME280;36023;48.670;6.184;2022-08-19T12:20:26;98937.25;;;25.79;50.80
50125;BME280;36023;48.670;6.184;2022-08-19T12:22:52;98936.41;;;25.78;50.78
50125;BME280;36023;48.670;6.184;2022-08-19T12:25:18;98931.25;;;25.77;50.86
50125;BME280;36023;48.670;6.184;2022-08-19T12:27:44;98941.84;;;25.77;50.81
50125;BME280;36023;48.670;6.184;2022-08-19T12:30:11;98936.56;;;25.77;50.89
50125;BME280;36023;48.670;6.184;2022-08-19T12:32:38;98937.53;;;25.76;51.10
50125;BME280;36023;48.670;6.184;2022-08-19T12:35:06;98927.84;;;25.75;51.07
50125;BME280;36023;48.670;6.184;2022-08-19T12:37:34;98936.66;;;25.75;51.14
50125;BME280;36023;48.670;6.184;2022-08-19T12:40:00;98931.34;;;25.75;51.11
50125;BME280;36023;48.670;6.184;2022-08-19T12:42:26;98925.22;;;25.75;51.17
50125;BME280;36023;48.670;6.184;2022-08-19T12:44:51;98929.69;;;25.74;51.10
50125;BME280;36023;48.670;6.184;2022-08-19T12:47:17;98930.50;;;25.75;51.07
50125;BME280;36023;48.670;6.184;2022-08-19T12:49:43;98932.31;;;25.74;51.23
50125;BME280;36023;48.670;6.184;2022-08-19T12:52:09;98930.66;;;25.73;51.32
50125;BME280;36023;48.670;6.184;2022-08-19T12:54:36;98931.63;;;25.72;51.36
50125;BME280;36023;48.670;6.184;2022-08-19T12:57:05;98935.13;;;25.73;51.25
50125;BME280;36023;48.670;6.184;2022-08-19T12:59:31;98938.59;;;25.73;51.15
50125;BME280;36023;48.670;6.184;2022-08-19T13:01:57;98935.13;;;25.73;51.07
50125;BME280;36023;48.670;6.184;2022-08-19T13:04:22;98927.16;;;25.73;51.37
50125;BME280;36023;48.670;6.184;2022-08-19T13:06:48;98928.97;;;25.72;51.31
50125;BME280;36023;48.670;6.184;2022-08-19T13:09:13;98932.47;;;25.73;51.07
50125;BME280;36023;48.670;6.184;2022-08-19T13:11:39;98931.63;;;25.72;51.08